Time;durP1;ratioP1;P1;durP2;ratioP2;P2;SDS_P1;SDS_P2;PMS_P1;PMS_P2;Temp;Humidity;BMP_temperature;BMP_pressure;BME280_temperature;BME280_humidity;BME280_pressure;Samples;Min_cycle;Max_cycle;Signal;HPM_P1;HPM_P2
2021/06/29 00:00:11;;;;;;;19.55;10.85;;;17.30;98.50;;;;;;5068018;28;20093;-77
2021/06/29 00:02:37;;;;;;;19.00;10.90;;;17.30;98.60;;;;;;5066158;28;20063;-77
2021/06/29 00:05:04;;;;;;;17.90;11.23;;;17.20;98.70;;;;;;5082947;28;20094;-77
2021/06/29 00:07:29;;;;;;;24.75;11.10;;;17.20;98.70;;;;;;5065255;28;20035;-77
2021/06/29 00:09:55;;;;;;;18.70;11.70;;;17.20;98.80;;;;;;5068326;28;20044;-77
2021/06/29 00:12:21;;;;;;;19.08;10.82;;;17.20;98.80;;;;;;5079064;28;20056;-77
2021/06/29 00:14:47;;;;;;;18.77;10.73;;;17.10;98.90;;;;;;5034740;28;20368;-77
2021/06/29 00:17:13;;;;;;;17.70;10.98;;;17.10;98.90;;;;;;5084660;28;20044;-77
2021/06/29 00:19:39;;;;;;;17.38;10.93;;;17.10;99.00;;;;;;5081152;28;20047;-76
2021/06/29 00:22:06;;;;;;;17.92;11.38;;;17.10;98.90;;;;;;5064127;28;20051;-77
2021/06/29 00:24:32;;;;;;;15.45;10.70;;;17.10;98.90;;;;;;5082021;28;20415;-77
2021/06/29 00:26:58;;;;;;;18.90;10.80;;;17.00;98.80;;;;;;5081310;28;20063;-77
2021/06/29 00:29:24;;;;;;;18.73;11.75;;;17.00;98.80;;;;;;5060301;28;20544;-77
2021/06/29 00:31:50;;;;;;;19.13;9.57;;;17.00;98.90;;;;;;5082074;28;20723;-77
2021/06/29 00:34:16;;;;;;;22.77;12.30;;;17.00;98.90;;;;;;5081363;28;20040;-77
2021/06/29 00:36:42;;;;;;;25.50;12.10;;;16.90;99.00;;;;;;5061413;28;20545;-77
2021/06/29 00:39:08;;;;;;;17.17;11.40;;;16.90;99.10;;;;;;5081712;28;20036;-77
2021/06/29 00:41:34;;;;;;;17.67;9.90;;;16.80;99.10;;;;;;5079152;28;20051;-77
2021/06/29 00:44:00;;;;;;;24.17;11.32;;;16.80;99.10;;;;;;5080707;28;20311;-77
2021/06/29 00:46:26;;;;;;;16.92;10.35;;;16.90;99.20;;;;;;5041292;28;20453;-76
2021/06/29 00:48:52;;;;;;;24.45;11.35;;;16.80;99.20;;;;;;5080984;28;20066;-76
2021/06/29 00:51:20;;;;;;;19.92;11.35;;;16.80;99.30;;;;;;5097577;28;20339;-76
2021/06/29 00:53:47;;;;;;;19.45;10.85;;;16.80;99.20;;;;;;5079115;28;20032;-77
2021/06/29 00:56:14;;;;;;;24.30;11.50;;;16.80;99.20;;;;;;5064755;28;20030;-76
2021/06/29 00:58:44;;;;;;;22.30;12.55;;;16.80;99.20;;;;;;5081424;28;20044;-77
2021/06/29 01:01:10;;;;;;;;;;;16.70;99.20;;;;;;5082907;28;20125;-76
2021/06/29 01:03:44;;;;;;;26.67;12.45;;;16.70;99.10;;;;;;5079508;28;20693;-76
2021/06/29 01:06:16;;;;;;;22.55;11.80;;;16.60;99.30;;;;;;5079858;28;20101;-76
2021/06/29 01:08:42;;;;;;;22.98;11.70;;;16.60;99.30;;;;;;5065338;28;20032;-76
2021/06/29 01:11:09;;;;;;;24.35;12.68;;;16.60;99.40;;;;;;5079455;28;20032;-76
2021/06/29 01:13:38;;;;;;;28.98;13.43;;;16.60;99.50;;;;;;5065899;28;20040;-76
2021/06/29 01:16:06;;;;;;;23.83;12.05;;;16.50;99.60;;;;;;5095683;28;20052;-76
2021/06/29 01:18:36;;;;;;;22.08;12.48;;;16.50;99.80;;;;;;5083426;28;20040;-75
2021/06/29 01:21:04;;;;;;;27.13;12.77;;;16.50;99.90;;;;;;5066433;28;20066;-75
2021/06/29 01:23:31;;;;;;;25.73;12.60;;;16.50;99.90;;;;;;5087663;28;20040;-82
2021/06/29 01:26:25;;;;;;;26.92;13.30;;;16.50;99.90;;;;;;5089017;28;20036;-79
2021/06/29 01:31:21;;;;;;;18.92;9.43;;;16.40;99.90;;;;;;5085729;28;20063;-82
2021/06/29 01:33:48;;;;;;;18.83;11.68;;;16.40;99.90;;;;;;5087750;28;20269;-81
2021/06/29 01:36:16;;;;;;;21.15;10.57;;;16.40;99.90;;;;;;5087513;28;20032;-81
2021/06/29 01:38:43;;;;;;;27.88;12.43;;;16.40;99.90;;;;;;5071828;28;20048;-79
2021/06/29 01:41:11;;;;;;;28.50;12.73;;;16.40;99.90;;;;;;5084186;28;20121;-80
2021/06/29 01:46:33;;;;;;;23.42;11.68;;;16.40;99.90;;;;;;5068925;28;20280;-80
2021/06/29 01:48:59;;;;;;;26.10;12.00;;;16.40;99.90;;;;;;5081817;28;20059;-80
2021/06/29 01:51:25;;;;;;;21.15;10.52;;;16.40;99.90;;;;;;5084306;28;20043;-80
2021/06/29 01:53:53;;;;;;;21.42;10.80;;;16.40;99.90;;;;;;5086064;28;20051;-80
2021/06/29 01:56:27;;;;;;;24.33;10.70;;;16.30;99.90;;;;;;5085767;28;20036;-80
2021/06/29 01:58:59;;;;;;;31.05;11.40;;;16.30;99.90;;;;;;5087041;28;20036;-80
2021/06/29 02:01:25;;;;;;;18.38;10.18;;;16.30;99.90;;;;;;5066275;28;20521;-80
2021/06/29 02:03:51;;;;;;;28.17;11.57;;;16.30;99.90;;;;;;5068755;28;20093;-79
2021/06/29 02:06:17;;;;;;;24.77;11.55;;;16.20;99.90;;;;;;5067197;28;20044;-79
2021/06/29 02:08:44;;;;;;;24.25;10.25;;;16.30;99.90;;;;;;5087567;28;20032;-80
2021/06/29 02:11:10;;;;;;;16.83;9.75;;;16.30;99.90;;;;;;5083602;28;20122;-80
2021/06/29 02:13:37;;;;;;;20.65;10.35;;;16.30;99.90;;;;;;5081873;28;20135;-80
2021/06/29 02:16:03;;;;;;;23.33;10.95;;;16.30;99.90;;;;;;5102199;28;20122;-80
2021/06/29 02:18:32;;;;;;;29.13;12.20;;;16.30;99.90;;;;;;5052494;28;20043;-80
2021/06/29 02:20:58;;;;;;;25.77;11.80;;;16.30;99.90;;;;;;5067406;28;20135;-79
2021/06/29 02:23:24;;;;;;;25.35;11.65;;;16.30;99.90;;;;;;5085054;28;21244;-80
2021/06/29 02:25:53;;;;;;;33.50;13.05;;;16.20;99.90;;;;;;5085069;28;20032;-79
2021/06/29 02:28:22;;;;;;;25.27;12.63;;;16.20;99.90;;;;;;5081726;28;20169;-80
2021/06/29 02:30:48;;;;;;;28.40;12.32;;;16.20;99.90;;;;;;5084305;28;20044;-80
2021/06/29 02:33:14;;;;;;;27.77;11.95;;;16.20;99.90;;;;;;5067300;28;20032;-79
2021/06/29 02:35:40;;;;;;;27.17;12.57;;;16.20;99.90;;;;;;5066769;28;20059;-79
2021/06/29 02:38:07;;;;;;;26.73;12.57;;;16.20;99.90;;;;;;5083125;28;20081;-79
2021/06/29 02:40:33;;;;;;;31.73;13.27;;;16.20;99.90;;;;;;5084412;28;20541;-80
2021/06/29 02:42:59;;;;;;;21.65;11.13;;;16.20;99.90;;;;;;5083507;28;20044;-79
2021/06/29 02:45:26;;;;;;;18.55;10.07;;;16.20;99.90;;;;;;5085429;28;20130;-79
2021/06/29 02:47:53;;;;;;;22.63;12.48;;;16.20;99.90;;;;;;5085253;28;20035;-79
2021/06/29 02:50:20;;;;;;;27.52;13.63;;;16.20;99.90;;;;;;5079987;28;20040;-80
2021/06/29 02:52:46;;;;;;;27.70;13.48;;;16.20;99.90;;;;;;5066398;28;20327;-80
2021/06/29 02:55:14;;;;;;;22.40;12.43;;;16.20;99.90;;;;;;5082708;28;20522;-79
2021/06/29 02:57:41;;;;;;;24.83;11.73;;;16.20;99.90;;;;;;5078470;28;20546;-80
2021/06/29 03:00:10;;;;;;;23.00;11.88;;;16.20;99.90;;;;;;5084591;28;20040;-78
2021/06/29 03:02:36;;;;;;;22.98;12.45;;;16.20;99.90;;;;;;5080006;28;20086;-78
2021/06/29 03:05:03;;;;;;;25.73;11.82;;;16.20;99.90;;;;;;5063240;28;20060;-79
2021/06/29 03:07:29;;;;;;;23.63;11.05;;;16.20;99.90;;;;;;5084977;28;20044;-78
2021/06/29 03:09:55;;;;;;;26.58;11.65;;;16.20;99.90;;;;;;5067225;28;20063;-80
2021/06/29 03:12:21;;;;;;;30.13;12.82;;;16.20;99.90;;;;;;5083522;28;20029;-81
2021/06/29 03:14:53;;;;;;;30.88;12.95;;;16.20;99.90;;;;;;5080126;28;20039;-81
2021/06/29 03:17:19;;;;;;;24.95;11.50;;;16.20;99.90;;;;;;5068178;28;20036;-80
2021/06/29 03:19:45;;;;;;;22.40;11.70;;;16.20;99.90;;;;;;5085362;28;20060;-80
2021/06/29 03:22:11;;;;;;;28.90;11.25;;;16.20;99.90;;;;;;5085643;28;20040;-80
2021/06/29 03:24:37;;;;;;;24.88;13.05;;;16.20;99.90;;;;;;5078185;28;20686;-80
2021/06/29 03:27:05;;;;;;;30.67;12.40;;;16.20;99.90;;;;;;5081437;28;20066;-79
2021/06/29 03:29:31;;;;;;;30.80;13.82;;;16.20;99.90;;;;;;5081986;28;20039;-78
2021/06/29 03:32:00;;;;;;;24.65;11.30;;;16.20;99.90;;;;;;5083958;28;20486;-80
2021/06/29 03:34:26;;;;;;;23.95;12.02;;;16.20;99.90;;;;;;5083998;28;20040;-80
2021/06/29 03:36:52;;;;;;;28.30;13.23;;;16.20;99.90;;;;;;5067432;28;20070;-79
2021/06/29 03:39:18;;;;;;;33.13;12.80;;;16.20;99.90;;;;;;5066737;28;20051;-78
2021/06/29 03:41:45;;;;;;;26.30;11.88;;;16.30;99.90;;;;;;5064815;28;20036;-80
2021/06/29 03:44:12;;;;;;;27.23;12.55;;;16.30;99.90;;;;;;5084558;28;20059;-79
2021/06/29 03:46:39;;;;;;;29.02;11.85;;;16.30;99.90;;;;;;5086513;28;20115;-80
2021/06/29 03:49:05;;;;;;;22.08;12.07;;;16.30;99.90;;;;;;5087761;28;20036;-80
2021/06/29 03:51:31;;;;;;;35.78;12.82;;;16.40;99.90;;;;;;5062928;28;20041;-79
2021/06/29 03:53:57;;;;;;;27.83;11.02;;;16.40;99.90;;;;;;5088011;28;20343;-80
2021/06/29 03:56:24;;;;;;;33.22;12.20;;;16.40;99.90;;;;;;5081890;28;20039;-79
2021/06/29 03:58:55;;;;;;;34.05;12.40;;;16.40;99.90;;;;;;5083072;28;20040;-80
2021/06/29 04:01:21;;;;;;;32.42;11.73;;;16.40;99.90;;;;;;5081846;28;20520;-80
2021/06/29 04:03:48;;;;;;;39.75;13.05;;;16.40;99.90;;;;;;5067258;28;20041;-80
2021/06/29 04:06:14;;;;;;;31.20;12.38;;;16.40;99.90;;;;;;5086483;28;20139;-80
2021/06/29 04:08:41;;;;;;;43.00;13.82;;;16.40;99.90;;;;;;5067827;28;20066;-79
2021/06/29 04:11:09;;;;;;;55.88;15.23;;;16.40;99.90;;;;;;5086105;28;20123;-79
2021/06/29 04:13:35;;;;;;;53.78;14.38;;;16.50;99.90;;;;;;5083909;28;20115;-81
2021/06/29 04:16:01;;;;;;;42.58;12.70;;;16.50;99.90;;;;;;5066121;28;20119;-80
2021/06/29 04:18:27;;;;;;;54.25;12.98;;;16.50;99.90;;;;;;5086651;28;20036;-79
2021/06/29 04:20:53;;;;;;;56.80;14.45;;;16.50;99.90;;;;;;5068555;28;20217;-80
2021/06/29 04:23:19;;;;;;;52.80;13.75;;;16.50;99.90;;;;;;5088859;28;20122;-80
2021/06/29 04:25:45;;;;;;;55.13;13.80;;;16.50;99.90;;;;;;5087528;28;20028;-81
2021/06/29 04:28:11;;;;;;;45.58;13.68;;;16.50;99.90;;;;;;5083779;28;20275;-81
2021/06/29 04:30:37;;;;;;;67.25;15.10;;;16.60;99.90;;;;;;5069516;28;20043;-81
2021/06/29 04:33:03;;;;;;;48.15;13.48;;;16.60;99.90;;;;;;5066823;28;20104;-82
2021/06/29 04:35:29;;;;;;;44.60;13.50;;;16.60;99.90;;;;;;5085298;28;20040;-81
2021/06/29 04:37:55;;;;;;;37.67;12.70;;;16.60;99.90;;;;;;5086496;28;20132;-82
2021/06/29 04:40:21;;;;;;;44.10;14.02;;;16.60;99.90;;;;;;5086431;28;20495;-82
2021/06/29 04:42:47;;;;;;;73.15;15.73;;;16.60;99.90;;;;;;5071554;28;20506;-80
2021/06/29 04:45:13;;;;;;;66.95;16.48;;;16.60;99.90;;;;;;5085123;28;20082;-80
2021/06/29 04:47:46;;;;;;;79.40;16.80;;;16.60;99.90;;;;;;5083649;28;20067;-80
2021/06/29 04:50:13;;;;;;;85.82;17.90;;;16.60;99.90;;;;;;5083422;28;20501;-81
2021/06/29 04:52:39;;;;;;;85.30;17.13;;;16.60;99.90;;;;;;5068676;28;20603;-80
2021/06/29 04:55:05;;;;;;;71.88;17.95;;;16.60;99.90;;;;;;5088228;28;20036;-80
2021/06/29 04:57:33;;;;;;;73.90;17.20;;;16.60;99.90;;;;;;5087666;28;20465;-79
2021/06/29 05:00:00;;;;;;;63.20;16.02;;;16.60;99.90;;;;;;5088747;28;20040;-79
2021/06/29 05:02:26;;;;;;;74.32;16.30;;;16.60;99.90;;;;;;5066451;28;20036;-80
2021/06/29 05:04:51;;;;;;;48.10;13.88;;;16.70;99.90;;;;;;5087777;28;20043;-79
2021/06/29 05:07:17;;;;;;;47.95;15.48;;;16.70;99.90;;;;;;5069447;28;20040;-80
2021/06/29 05:09:43;;;;;;;54.80;14.88;;;16.70;99.90;;;;;;5051670;28;20048;-80
2021/06/29 05:12:09;;;;;;;50.67;13.18;;;16.80;99.90;;;;;;5069377;28;20597;-80
2021/06/29 05:14:35;;;;;;;44.58;13.88;;;16.80;99.90;;;;;;5058280;28;20036;-80
2021/06/29 05:17:01;;;;;;;56.35;14.75;;;16.90;99.90;;;;;;5086452;28;20441;-81
2021/06/29 05:19:27;;;;;;;52.72;14.57;;;16.90;99.90;;;;;;5081068;28;20043;-82
2021/06/29 05:21:56;;;;;;;52.67;15.98;;;16.90;99.90;;;;;;5085486;28;20044;-81
2021/06/29 05:24:22;;;;;;;55.58;14.55;;;16.90;99.90;;;;;;5070721;28;20070;-81
2021/06/29 05:26:50;;;;;;;64.28;16.48;;;17.00;99.90;;;;;;5050131;28;20052;-81
2021/06/29 05:29:16;;;;;;;68.50;16.40;;;17.00;99.90;;;;;;5083723;28;20089;-80
2021/06/29 05:31:43;;;;;;;57.28;15.15;;;17.00;99.90;;;;;;5083272;28;20423;-80
2021/06/29 05:34:08;;;;;;;49.00;14.23;;;17.00;99.90;;;;;;5061095;28;20124;-80
2021/06/29 05:36:34;;;;;;;61.50;16.42;;;17.00;99.90;;;;;;5079693;28;20122;-80
2021/06/29 05:39:00;;;;;;;65.40;15.95;;;17.00;99.90;;;;;;5102591;28;20419;-80
2021/06/29 05:41:26;;;;;;;75.20;17.48;;;17.00;99.90;;;;;;5067100;28;20039;-79
2021/06/29 05:43:52;;;;;;;56.88;15.10;;;17.10;99.90;;;;;;5085897;28;20036;-79
2021/06/29 05:46:18;;;;;;;56.13;15.57;;;17.10;99.90;;;;;;5081676;28;20050;-79
2021/06/29 05:48:46;;;;;;;49.78;15.52;;;17.10;99.90;;;;;;5066324;28;20138;-79
2021/06/29 05:51:12;;;;;;;57.20;16.35;;;17.10;99.90;;;;;;5067462;28;20117;-80
2021/06/29 05:53:38;;;;;;;79.63;18.73;;;17.10;99.90;;;;;;5061913;28;20526;-80
2021/06/29 05:56:04;;;;;;;77.95;18.17;;;17.20;99.90;;;;;;5084929;28;20054;-78
2021/06/29 05:58:32;;;;;;;86.07;18.35;;;17.10;99.90;;;;;;5075457;28;20036;-78
2021/06/29 06:00:58;;;;;;;58.65;17.77;;;17.10;99.90;;;;;;5064433;28;20579;-79
2021/06/29 06:03:25;;;;;;;71.20;17.70;;;17.10;99.90;;;;;;5083251;28;20050;-78
2021/06/29 06:05:51;;;;;;;66.22;18.23;;;17.10;99.90;;;;;;5080924;28;20052;-78
2021/06/29 06:08:17;;;;;;;88.97;19.40;;;17.10;99.90;;;;;;5066896;28;20117;-78
2021/06/29 06:10:43;;;;;;;79.63;19.83;;;17.20;99.90;;;;;;5065189;28;20825;-78
2021/06/29 06:13:09;;;;;;;77.22;19.70;;;17.20;99.90;;;;;;5099697;28;20450;-79
2021/06/29 06:15:37;;;;;;;67.25;19.13;;;17.30;99.90;;;;;;5062021;28;20063;-78
2021/06/29 06:18:05;;;;;;;65.32;18.60;;;17.30;99.90;;;;;;5052163;28;20044;-79
2021/06/29 06:20:38;;;;;;;60.83;18.60;;;17.30;99.90;;;;;;5086348;28;20032;-79
2021/06/29 06:23:05;;;;;;;78.93;20.60;;;17.30;99.90;;;;;;5085991;28;20044;-80
2021/06/29 06:25:32;;;;;;;64.10;18.08;;;17.40;99.90;;;;;;5085344;28;20044;-79
2021/06/29 06:27:58;;;;;;;74.10;20.58;;;17.50;99.90;;;;;;5084444;28;20028;-80
2021/06/29 06:30:24;;;;;;;71.15;19.77;;;17.50;99.90;;;;;;5083221;28;20044;-80
2021/06/29 06:32:51;;;;;;;55.25;17.15;;;17.60;99.90;;;;;;5086381;28;20043;-80
2021/06/29 06:35:17;;;;;;;58.78;17.73;;;17.50;99.90;;;;;;5067734;28;20041;-79
2021/06/29 06:37:43;;;;;;;61.53;17.83;;;17.60;99.90;;;;;;5086166;28;20044;-80
2021/06/29 06:40:09;;;;;;;56.53;18.70;;;17.60;99.90;;;;;;5069066;28;20521;-80
2021/06/29 06:42:36;;;;;;;58.15;17.92;;;17.60;99.90;;;;;;5082425;28;20032;-80
2021/06/29 06:45:04;;;;;;;64.82;18.98;;;17.60;99.90;;;;;;5083147;28;20052;-79
2021/06/29 06:47:30;;;;;;;53.83;18.15;;;17.60;99.90;;;;;;5084865;28;20032;-79
2021/06/29 06:49:57;;;;;;;59.95;19.92;;;17.60;99.90;;;;;;5085465;28;20062;-80
2021/06/29 06:52:25;;;;;;;56.00;20.90;;;17.60;99.90;;;;;;5066382;28;20036;-80
2021/06/29 06:54:51;;;;;;;65.55;19.63;;;17.60;99.90;;;;;;5065949;28;20043;-80
2021/06/29 06:57:17;;;;;;;71.28;20.58;;;17.60;99.90;;;;;;5067628;28;20364;-79
2021/06/29 06:59:43;;;;;;;55.22;18.35;;;17.70;99.90;;;;;;5067136;28;20036;-80
2021/06/29 07:02:10;;;;;;;61.17;21.25;;;17.70;99.90;;;;;;5066641;28;20036;-79
2021/06/29 07:04:38;;;;;;;76.40;21.58;;;17.70;99.90;;;;;;5085808;28;20110;-80
2021/06/29 07:07:05;;;;;;;66.10;20.80;;;17.80;99.90;;;;;;5064436;28;20055;-79
2021/06/29 07:09:30;;;;;;;59.08;21.52;;;17.80;99.90;;;;;;5084062;28;20461;-80
2021/06/29 07:11:57;;;;;;;51.97;19.35;;;17.80;99.90;;;;;;5066569;28;20158;-80
2021/06/29 07:14:23;;;;;;;49.58;17.60;;;17.80;99.90;;;;;;5066690;28;20039;-80
2021/06/29 07:16:49;;;;;;;55.38;21.85;;;17.80;99.90;;;;;;5082110;28;20055;-80
2021/06/29 07:19:15;;;;;;;55.42;21.08;;;17.90;99.90;;;;;;5084586;28;20036;-80
2021/06/29 07:21:41;;;;;;;57.00;20.20;;;17.90;99.90;;;;;;5065238;28;20559;-80
2021/06/29 07:24:08;;;;;;;56.20;22.20;;;17.90;99.90;;;;;;5098165;28;20036;-80
2021/06/29 07:26:34;;;;;;;44.65;19.23;;;17.90;99.90;;;;;;5097238;28;20055;-80
2021/06/29 07:29:01;;;;;;;63.28;22.58;;;17.90;99.90;;;;;;5083970;28;20047;-81
2021/06/29 07:31:27;;;;;;;51.35;21.23;;;18.00;99.90;;;;;;5080624;28;20028;-81
2021/06/29 07:33:53;;;;;;;52.50;21.02;;;18.00;99.90;;;;;;5082783;28;20507;-80
2021/06/29 07:36:19;;;;;;;47.78;21.20;;;18.00;99.90;;;;;;5049727;28;20044;-81
2021/06/29 07:38:45;;;;;;;59.53;22.48;;;18.00;99.90;;;;;;5065260;28;20421;-81
2021/06/29 07:41:13;;;;;;;42.42;20.08;;;18.10;99.90;;;;;;5081862;28;20052;-81
2021/06/29 07:43:39;;;;;;;40.88;18.35;;;18.10;99.90;;;;;;5083837;28;20159;-80
2021/06/29 07:46:05;;;;;;;43.70;21.05;;;18.20;99.90;;;;;;5082571;28;20038;-81
2021/06/29 07:48:31;;;;;;;40.17;20.13;;;18.20;99.90;;;;;;5064416;28;20597;-81
2021/06/29 07:50:58;;;;;;;40.63;19.55;;;18.30;99.90;;;;;;5080964;28;20049;-80
2021/06/29 07:53:24;;;;;;;40.70;19.27;;;18.30;99.90;;;;;;5081672;28;20044;-80
2021/06/29 07:55:50;;;;;;;33.15;19.08;;;18.30;99.90;;;;;;5084054;28;20143;-80
2021/06/29 07:58:17;;;;;;;42.47;19.08;;;18.30;99.90;;;;;;5084383;28;20040;-80
2021/06/29 08:00:44;;;;;;;50.85;22.25;;;18.30;99.90;;;;;;5085991;28;20101;-80
2021/06/29 08:03:11;;;;;;;47.50;22.17;;;18.30;99.90;;;;;;5065978;28;20493;-80
2021/06/29 08:05:37;;;;;;;42.22;20.45;;;18.40;99.90;;;;;;5083383;28;20060;-80
2021/06/29 08:08:07;;;;;;;40.20;20.10;;;18.30;99.90;;;;;;5082946;28;20051;-80
2021/06/29 08:10:33;;;;;;;47.35;23.00;;;18.30;99.90;;;;;;5086771;28;20035;-80
2021/06/29 08:13:02;;;;;;;44.35;21.27;;;18.30;99.90;;;;;;5069834;28;20055;-79
2021/06/29 08:15:28;;;;;;;36.65;18.58;;;18.40;99.90;;;;;;5051545;28;20051;-80
2021/06/29 08:17:54;;;;;;;37.67;20.55;;;18.40;99.90;;;;;;5083617;28;20036;-80
2021/06/29 08:20:20;;;;;;;33.08;18.45;;;18.40;99.90;;;;;;5088378;28;20131;-79
2021/06/29 08:22:47;;;;;;;38.10;21.25;;;18.50;99.90;;;;;;5084469;28;20043;-80
2021/06/29 08:25:13;;;;;;;35.60;21.10;;;18.50;99.90;;;;;;5054258;28;20052;-80
2021/06/29 08:27:39;;;;;;;33.60;19.35;;;18.50;99.90;;;;;;5083961;28;20058;-80
2021/06/29 08:30:10;;;;;;;32.50;19.58;;;18.50;99.90;;;;;;5091075;28;20044;-79
2021/06/29 08:32:38;;;;;;;46.38;22.55;;;18.50;99.90;;;;;;5083550;28;20032;-81
2021/06/29 08:35:06;;;;;;;35.30;19.95;;;18.60;99.90;;;;;;5087916;28;20130;-80
2021/06/29 08:37:32;;;;;;;38.83;22.15;;;18.60;99.90;;;;;;5083999;28;20095;-80
2021/06/29 08:39:58;;;;;;;40.25;22.15;;;18.60;99.90;;;;;;5084157;28;20812;-80
2021/06/29 08:42:24;;;;;;;35.08;20.20;;;18.60;99.90;;;;;;5084052;28;20040;-80
2021/06/29 08:44:50;;;;;;;41.88;21.77;;;18.70;99.90;;;;;;5081283;28;20032;-79
2021/06/29 08:47:16;;;;;;;46.47;23.83;;;18.70;99.90;;;;;;5066486;28;20510;-79
2021/06/29 08:49:42;;;;;;;40.17;24.23;;;18.80;99.90;;;;;;5081268;28;20060;-79
2021/06/29 08:52:10;;;;;;;44.50;23.23;;;18.80;99.90;;;;;;5080872;28;20413;-79
2021/06/29 08:54:51;;;;;;;47.05;23.35;;;18.80;99.90;;;;;;5082590;28;20032;-81
2021/06/29 08:57:17;;;;;;;42.00;22.88;;;18.90;99.90;;;;;;5082841;28;20760;-80
2021/06/29 08:59:42;;;;;;;45.60;22.83;;;18.90;99.90;;;;;;5084437;28;20131;-79
2021/06/29 09:02:08;;;;;;;36.58;19.88;;;18.90;99.90;;;;;;5064958;28;20049;-80
2021/06/29 09:04:54;;;;;;;36.67;22.55;;;18.90;99.90;;;;;;5066510;28;20032;-80
2021/06/29 09:07:24;;;;;;;37.40;21.40;;;18.90;99.90;;;;;;5084940;28;20047;-80
2021/06/29 09:09:55;;;;;;;38.67;22.95;;;18.90;99.90;;;;;;5085371;28;20121;-82
2021/06/29 09:12:51;;;;;;;38.67;22.80;;;18.90;99.90;;;;;;5085632;28;20493;-80
2021/06/29 09:15:35;;;;;;;36.53;22.00;;;19.00;99.90;;;;;;5085957;28;20048;-79
2021/06/29 09:18:07;;;;;;;25.65;17.85;;;19.00;99.90;;;;;;5085813;28;20047;-79
2021/06/29 09:20:54;;;;;;;31.75;17.20;;;19.00;99.90;;;;;;5086167;28;20073;-79
2021/06/29 09:23:32;;;;;;;29.00;16.90;;;19.00;99.90;;;;;;5087398;28;20047;-80
2021/06/29 09:26:12;;;;;;;39.83;22.10;;;19.00;99.90;;;;;;5102097;28;20069;-81
2021/06/29 09:28:50;;;;;;;38.10;20.48;;;19.00;99.90;;;;;;5097817;28;20087;-79
2021/06/29 09:31:19;;;;;;;38.83;22.67;;;19.00;99.90;;;;;;5086754;28;20082;-81
2021/06/29 09:33:55;;;;;;;37.58;21.15;;;19.00;99.90;;;;;;5069491;28;20105;-81
2021/06/29 09:36:29;;;;;;;45.58;23.13;;;19.00;99.90;;;;;;5081735;28;20123;-81
2021/06/29 09:39:01;;;;;;;36.22;21.90;;;19.00;99.90;;;;;;5086519;28;20040;-82
2021/06/29 09:41:30;;;;;;;36.53;21.73;;;19.00;99.90;;;;;;5089863;28;20089;-79
2021/06/29 09:44:05;;;;;;;41.42;21.15;;;19.00;99.90;;;;;;5091335;28;20042;-80
2021/06/29 09:46:38;;;;;;;34.13;18.95;;;19.00;99.90;;;;;;5086311;28;20036;-80
2021/06/29 09:49:13;;;;;;;40.33;22.25;;;19.00;99.90;;;;;;5089532;28;20441;-81
2021/06/29 09:51:40;;;;;;;41.25;23.00;;;19.10;99.90;;;;;;5085421;28;20036;-79
2021/06/29 09:54:09;;;;;;;43.33;23.17;;;19.00;99.90;;;;;;5091198;28;20042;-79
2021/06/29 09:56:42;;;;;;;45.03;23.13;;;19.00;99.90;;;;;;5088510;28;20066;-80
2021/06/29 09:59:19;;;;;;;40.08;22.00;;;19.00;99.90;;;;;;5088875;28;20039;-79
2021/06/29 10:01:45;;;;;;;45.28;23.13;;;19.00;99.90;;;;;;5069624;28;20124;-79
2021/06/29 10:04:11;;;;;;;44.88;23.98;;;19.00;99.90;;;;;;5090661;28;20048;-80
2021/06/29 10:06:39;;;;;;;37.88;23.33;;;19.00;99.90;;;;;;5090468;28;20106;-80
2021/06/29 10:09:14;;;;;;;42.83;24.63;;;19.00;99.90;;;;;;5093476;28;20418;-80
2021/06/29 10:11:54;;;;;;;41.00;22.75;;;19.00;99.90;;;;;;5109188;28;20036;-80
2021/06/29 10:14:21;;;;;;;44.47;24.77;;;19.00;99.90;;;;;;5083052;28;20039;-81
2021/06/29 10:16:49;;;;;;;40.35;23.77;;;19.10;99.90;;;;;;5093847;28;20208;-81
2021/06/29 10:21:58;;;;;;;;;;;19.10;99.90;;;;;;5091282;28;20487;-81
2021/06/29 10:24:33;;;;;;;43.20;23.45;;;19.10;99.90;;;;;;5090109;28;20120;-80
2021/06/29 10:27:01;;;;;;;48.35;25.98;;;19.10;99.90;;;;;;5086121;28;20048;-80
2021/06/29 10:29:28;;;;;;;47.08;25.15;;;19.10;99.80;;;;;;5071009;28;20102;-82
2021/06/29 10:32:10;;;;;;;50.92;27.27;;;19.10;99.80;;;;;;5069497;28;20075;-81
2021/06/29 10:34:37;;;;;;;50.60;25.30;;;19.20;99.90;;;;;;5083319;28;20112;-81
2021/06/29 10:37:05;;;;;;;44.40;25.95;;;19.30;99.90;;;;;;5098541;28;20044;-81
2021/06/29 10:39:33;;;;;;;44.60;27.63;;;19.40;99.90;;;;;;5067845;28;20046;-81
2021/06/29 10:42:03;;;;;;;44.92;25.65;;;19.50;99.70;;;;;;5082318;28;20037;-80
2021/06/29 10:44:45;;;;;;;46.88;26.65;;;19.60;99.40;;;;;;5077312;28;20056;-82
2021/06/29 10:47:24;;;;;;;47.72;27.20;;;19.60;98.80;;;;;;5076724;28;20040;-81
2021/06/29 10:49:51;;;;;;;39.67;25.13;;;19.50;99.10;;;;;;5081687;28;20039;-81
2021/06/29 10:52:24;;;;;;;55.78;27.50;;;19.40;99.20;;;;;;5081047;28;20595;-81
2021/06/29 10:55:00;;;;;;;44.72;27.05;;;19.50;99.40;;;;;;5096887;28;20115;-81
2021/06/29 10:57:48;;;;;;;44.53;27.70;;;19.50;99.30;;;;;;5081126;28;20040;-81
2021/06/29 11:00:16;;;;;;;36.17;23.67;;;19.50;99.10;;;;;;5081753;28;20093;-82
2021/06/29 11:03:02;;;;;;;39.80;27.30;;;19.50;99.10;;;;;;5079902;28;20126;-82
2021/06/29 11:05:34;;;;;;;45.85;29.90;;;19.50;99.10;;;;;;5080369;28;20083;-81
2021/06/29 11:08:23;;;;;;;44.63;29.40;;;19.50;98.90;;;;;;5079650;28;20127;-82
2021/06/29 11:10:50;;;;;;;47.97;29.77;;;19.40;98.80;;;;;;5067273;28;20071;-82
2021/06/29 11:13:18;;;;;;;42.17;28.42;;;19.30;98.80;;;;;;5085529;28;20490;-81
2021/06/29 11:15:55;;;;;;;49.22;30.55;;;19.30;98.90;;;;;;5079481;28;20040;-81
2021/06/29 11:18:45;;;;;;;49.92;30.95;;;19.30;98.70;;;;;;5076063;28;20044;-81
2021/06/29 11:21:34;;;;;;;43.75;30.52;;;19.30;98.70;;;;;;5069891;28;20048;-83
2021/06/29 11:24:00;;;;;;;53.17;30.05;;;19.20;98.80;;;;;;5075308;28;20039;-83
2021/06/29 11:26:27;;;;;;;47.40;29.15;;;19.20;99.10;;;;;;5074423;28;20044;-81
2021/06/29 11:29:35;;;;;;;45.60;29.50;;;19.30;99.30;;;;;;5077376;28;20354;-83
2021/06/29 11:32:38;;;;;;;39.10;24.75;;;19.30;99.10;;;;;;5049296;28;20139;-81
2021/06/29 11:35:40;;;;;;;45.88;27.90;;;19.20;99.30;;;;;;5073442;28;20044;-82
2021/06/29 11:38:08;;;;;;;40.45;25.48;;;19.20;99.10;;;;;;5063491;28;20089;-81
2021/06/29 11:40:35;;;;;;;45.10;28.23;;;19.20;99.20;;;;;;5073101;28;20044;-82
2021/06/29 11:43:13;;;;;;;42.25;26.95;;;19.20;99.30;;;;;;5081038;28;20050;-81
2021/06/29 11:45:40;;;;;;;41.10;28.20;;;19.10;99.10;;;;;;5080036;28;20045;-81
2021/06/29 11:48:42;;;;;;;40.70;25.98;;;19.10;99.20;;;;;;5074666;28;20024;-82
2021/06/29 11:51:11;;;;;;;38.13;26.65;;;19.10;99.10;;;;;;5074516;28;20048;-83
2021/06/29 11:53:39;;;;;;;39.25;27.40;;;19.00;99.30;;;;;;5045114;28;20051;-83
2021/06/29 11:56:12;;;;;;;39.70;26.90;;;19.00;99.20;;;;;;5075127;28;20047;-83
2021/06/29 11:58:46;;;;;;;44.35;27.65;;;19.00;99.20;;;;;;5091306;28;20037;-84
2021/06/29 12:01:12;;;;;;;42.53;27.20;;;19.00;99.30;;;;;;5073391;28;20036;-83
2021/06/29 12:03:38;;;;;;;33.83;24.13;;;19.10;99.30;;;;;;5062024;28;20039;-84
2021/06/29 12:06:04;;;;;;;34.60;23.92;;;19.10;99.10;;;;;;5057374;28;20075;-82
2021/06/29 12:08:30;;;;;;;41.08;26.23;;;19.10;99.10;;;;;;5064354;28;20067;-84
2021/06/29 12:10:58;;;;;;;40.45;24.92;;;19.10;99.20;;;;;;5080674;28;20032;-81
2021/06/29 12:13:30;;;;;;;40.55;24.27;;;19.10;99.20;;;;;;5073765;28;20059;-82
2021/06/29 12:16:00;;;;;;;40.15;24.15;;;19.10;99.00;;;;;;5080400;28;20050;-83
2021/06/29 12:18:31;;;;;;;42.22;24.52;;;19.00;99.10;;;;;;5075891;28;20043;-82
2021/06/29 12:21:01;;;;;;;40.35;22.60;;;19.10;99.20;;;;;;5071847;28;20430;-84
2021/06/29 12:23:38;;;;;;;37.60;22.65;;;19.10;99.20;;;;;;5077009;28;20043;-82
2021/06/29 12:26:12;;;;;;;38.40;22.40;;;19.00;99.10;;;;;;5073434;28;20040;-81
2021/06/29 12:28:40;;;;;;;37.00;21.45;;;19.00;99.10;;;;;;5073590;28;20052;-82
2021/06/29 12:31:14;;;;;;;43.90;24.42;;;18.90;99.20;;;;;;5075165;28;20067;-84
2021/06/29 12:33:46;;;;;;;35.80;23.15;;;19.00;99.40;;;;;;5088340;28;20044;-84
2021/06/29 12:36:22;;;;;;;35.95;20.98;;;19.00;99.50;;;;;;5074862;28;20127;-83
2021/06/29 12:38:52;;;;;;;41.25;23.58;;;19.00;99.40;;;;;;5086319;28;20964;-84
2021/06/29 12:41:26;;;;;;;37.20;21.83;;;19.00;99.40;;;;;;5078418;28;20032;-81
2021/06/29 12:44:00;;;;;;;39.20;22.75;;;19.00;99.40;;;;;;5087542;28;20093;-82